sensor_id;sensor_type;location;lat;lon;timestamp;P1;durP1;ratioP1;P2;durP2;ratioP2
67185;SDS011;54116;53.518;49.398;2023-05-29T00:00:21;5.60;;;2.55;;
67185;SDS011;54116;53.518;49.398;2023-05-29T00:02:48;5.22;;;2.40;;
67185;SDS011;54116;53.518;49.398;2023-05-29T00:05:16;6.90;;;3.13;;
67185;SDS011;54116;53.518;49.398;2023-05-29T00:07:43;7.03;;;3.35;;
67185;SDS011;54116;53.518;49.398;2023-05-29T00:10:09;5.88;;;2.53;;
67185;SDS011;54116;53.518;49.398;2023-05-29T00:12:37;5.82;;;2.70;;
67185;SDS011;54116;53.518;49.398;2023-05-29T00:15:04;6.32;;;3.40;;
67185;SDS011;54116;53.518;49.398;2023-05-29T00:17:31;6.55;;;3.20;;
67185;SDS011;54116;53.518;49.398;2023-05-29T00:19:58;8.50;;;3.20;;
67185;SDS011;54116;53.518;49.398;2023-05-29T00:22:27;6.60;;;3.22;;
67185;SDS011;54116;53.518;49.398;2023-05-29T00:24:53;7.68;;;2.80;;
67185;SDS011;54116;53.518;49.398;2023-05-29T00:27:19;5.97;;;2.63;;
67185;SDS011;54116;53.518;49.398;2023-05-29T00:29:45;6.60;;;2.80;;
67185;SDS011;54116;53.518;49.398;2023-05-29T00:32:12;5.80;;;3.40;;
67185;SDS011;54116;53.518;49.398;2023-05-29T00:34:38;5.63;;;2.78;;
67185;SDS011;54116;53.518;49.398;2023-05-29T00:37:04;7.00;;;3.83;;
67185;SDS011;54116;53.518;49.398;2023-05-29T00:39:30;5.47;;;2.75;;
67185;SDS011;54116;53.518;49.398;2023-05-29T00:41:56;6.43;;;3.45;;
67185;SDS011;54116;53.518;49.398;2023-05-29T00:44:22;7.32;;;3.10;;
67185;SDS011;54116;53.518;49.398;2023-05-29T00:46:49;7.93;;;3.25;;
67185;SDS011;54116;53.518;49.398;2023-05-29T00:49:21;5.97;;;3.67;;
67185;SDS011;54116;53.518;49.398;2023-05-29T00:51:49;6.85;;;3.50;;
67185;SDS011;54116;53.518;49.398;2023-05-29T00:54:19;5.72;;;2.90;;
67185;SDS011;54116;53.518;49.398;2023-05-29T00:56:47;6.03;;;3.60;;
67185;SDS011;54116;53.518;49.398;2023-05-29T00:59:13;6.53;;;3.90;;
67185;SDS011;54116;53.518;49.398;2023-05-29T01:01:40;6.40;;;3.42;;
67185;SDS011;54116;53.518;49.398;2023-05-29T01:04:07;8.00;;;3.40;;
67185;SDS011;54116;53.518;49.398;2023-05-29T01:06:40;6.38;;;3.15;;
67185;SDS011;54116;53.518;49.398;2023-05-29T01:09:06;6.85;;;3.60;;
67185;SDS011;54116;53.518;49.398;2023-05-29T01:11:48;6.45;;;3.80;;
67185;SDS011;54116;53.518;49.398;2023-05-29T01:14:19;5.85;;;2.90;;
67185;SDS011;54116;53.518;49.398;2023-05-29T01:17:06;7.20;;;2.95;;
67185;SDS011;54116;53.518;49.398;2023-05-29T01:25:24;5.85;;;3.13;;
67185;SDS011;54116;53.518;49.398;2023-05-29T01:28:01;7.50;;;3.92;;
67185;SDS011;54116;53.518;49.398;2023-05-29T01:30:30;7.13;;;2.83;;
67185;SDS011;54116;53.518;49.398;2023-05-29T01:32:58;6.50;;;3.30;;
67185;SDS011;54116;53.518;49.398;2023-05-29T01:35:24;8.48;;;3.85;;
67185;SDS011;54116;53.518;49.398;2023-05-29T01:37:51;5.90;;;3.03;;
67185;SDS011;54116;53.518;49.398;2023-05-29T01:40:17;6.95;;;3.30;;
67185;SDS011;54116;53.518;49.398;2023-05-29T01:42:43;7.07;;;3.65;;
67185;SDS011;54116;53.518;49.398;2023-05-29T01:45:10;6.75;;;3.38;;
67185;SDS011;54116;53.518;49.398;2023-05-29T01:47:37;6.90;;;3.85;;
67185;SDS011;54116;53.518;49.398;2023-05-29T01:50:04;6.10;;;3.30;;
67185;SDS011;54116;53.518;49.398;2023-05-29T01:52:31;7.85;;;4.20;;
67185;SDS011;54116;53.518;49.398;2023-05-29T01:54:57;7.20;;;3.50;;
67185;SDS011;54116;53.518;49.398;2023-05-29T01:57:23;9.00;;;3.70;;
67185;SDS011;54116;53.518;49.398;2023-05-29T01:59:51;7.00;;;3.53;;
67185;SDS011;54116;53.518;49.398;2023-05-29T02:02:17;6.78;;;3.63;;
67185;SDS011;54116;53.518;49.398;2023-05-29T02:04:43;8.07;;;4.68;;
67185;SDS011;54116;53.518;49.398;2023-05-29T02:07:09;7.20;;;3.58;;
67185;SDS011;54116;53.518;49.398;2023-05-29T02:09:37;10.50;;;4.25;;
67185;SDS011;54116;53.518;49.398;2023-05-29T02:12:03;8.05;;;3.65;;
67185;SDS011;54116;53.518;49.398;2023-05-29T02:14:30;6.82;;;3.78;;
67185;SDS011;54116;53.518;49.398;2023-05-29T02:16:57;10.55;;;3.58;;
67185;SDS011;54116;53.518;49.398;2023-05-29T02:19:23;8.38;;;3.83;;
67185;SDS011;54116;53.518;49.398;2023-05-29T02:21:50;7.53;;;4.28;;
67185;SDS011;54116;53.518;49.398;2023-05-29T02:24:16;8.43;;;4.28;;
67185;SDS011;54116;53.518;49.398;2023-05-29T02:26:42;10.95;;;4.18;;
67185;SDS011;54116;53.518;49.398;2023-05-29T02:29:08;8.93;;;4.38;;
67185;SDS011;54116;53.518;49.398;2023-05-29T02:31:36;9.00;;;3.85;;
67185;SDS011;54116;53.518;49.398;2023-05-29T02:34:02;8.85;;;4.03;;
67185;SDS011;54116;53.518;49.398;2023-05-29T02:36:28;7.80;;;4.38;;
67185;SDS011;54116;53.518;49.398;2023-05-29T02:38:54;8.02;;;4.80;;
67185;SDS011;54116;53.518;49.398;2023-05-29T02:41:20;8.50;;;4.30;;
67185;SDS011;54116;53.518;49.398;2023-05-29T02:43:46;7.63;;;4.88;;
67185;SDS011;54116;53.518;49.398;2023-05-29T02:46:12;8.48;;;4.90;;
67185;SDS011;54116;53.518;49.398;2023-05-29T02:48:38;9.38;;;4.47;;
67185;SDS011;54116;53.518;49.398;2023-05-29T02:51:04;8.35;;;4.25;;
67185;SDS011;54116;53.518;49.398;2023-05-29T02:53:30;10.25;;;4.57;;
67185;SDS011;54116;53.518;49.398;2023-05-29T02:55:57;7.95;;;3.97;;
67185;SDS011;54116;53.518;49.398;2023-05-29T02:58:23;9.52;;;5.20;;
67185;SDS011;54116;53.518;49.398;2023-05-29T03:00:49;8.10;;;4.28;;
67185;SDS011;54116;53.518;49.398;2023-05-29T03:03:15;9.80;;;4.55;;
67185;SDS011;54116;53.518;49.398;2023-05-29T03:05:41;7.53;;;4.03;;
67185;SDS011;54116;53.518;49.398;2023-05-29T03:08:08;8.57;;;5.20;;
67185;SDS011;54116;53.518;49.398;2023-05-29T03:10:34;10.23;;;4.57;;
67185;SDS011;54116;53.518;49.398;2023-05-29T03:13:00;8.15;;;5.38;;
67185;SDS011;54116;53.518;49.398;2023-05-29T03:15:26;8.88;;;5.35;;
67185;SDS011;54116;53.518;49.398;2023-05-29T03:17:52;8.20;;;5.03;;
67185;SDS011;54116;53.518;49.398;2023-05-29T03:20:18;8.90;;;4.93;;
67185;SDS011;54116;53.518;49.398;2023-05-29T03:22:44;8.70;;;4.95;;
67185;SDS011;54116;53.518;49.398;2023-05-29T03:25:10;8.15;;;5.35;;
67185;SDS011;54116;53.518;49.398;2023-05-29T03:27:36;10.80;;;4.90;;
67185;SDS011;54116;53.518;49.398;2023-05-29T03:30:02;8.25;;;5.15;;
67185;SDS011;54116;53.518;49.398;2023-05-29T03:32:28;8.70;;;4.97;;
67185;SDS011;54116;53.518;49.398;2023-05-29T03:34:54;8.70;;;4.80;;
67185;SDS011;54116;53.518;49.398;2023-05-29T03:37:23;11.20;;;5.88;;
67185;SDS011;54116;53.518;49.398;2023-05-29T03:39:49;8.95;;;5.47;;
67185;SDS011;54116;53.518;49.398;2023-05-29T03:42:15;10.38;;;5.55;;
67185;SDS011;54116;53.518;49.398;2023-05-29T03:44:41;8.23;;;5.72;;
67185;SDS011;54116;53.518;49.398;2023-05-29T03:47:07;10.43;;;6.10;;
67185;SDS011;54116;53.518;49.398;2023-05-29T03:49:34;9.10;;;5.78;;
67185;SDS011;54116;53.518;49.398;2023-05-29T03:52:00;8.45;;;5.50;;
67185;SDS011;54116;53.518;49.398;2023-05-29T03:54:26;7.90;;;5.55;;
67185;SDS011;54116;53.518;49.398;2023-05-29T03:56:52;8.75;;;5.10;;
67185;SDS011;54116;53.518;49.398;2023-05-29T03:59:18;13.55;;;5.53;;
67185;SDS011;54116;53.518;49.398;2023-05-29T04:01:44;8.20;;;4.85;;
67185;SDS011;54116;53.518;49.398;2023-05-29T04:04:10;7.50;;;4.93;;
67185;SDS011;54116;53.518;49.398;2023-05-29T04:06:36;7.80;;;5.18;;
67185;SDS011;54116;53.518;49.398;2023-05-29T04:09:04;11.40;;;5.32;;
67185;SDS011;54116;53.518;49.398;2023-05-29T04:11:35;10.63;;;5.57;;
67185;SDS011;54116;53.518;49.398;2023-05-29T04:14:01;7.57;;;4.93;;
67185;SDS011;54116;53.518;49.398;2023-05-29T04:16:28;8.25;;;4.93;;
67185;SDS011;54116;53.518;49.398;2023-05-29T04:19:18;11.30;;;4.65;;
67185;SDS011;54116;53.518;49.398;2023-05-29T04:21:44;8.45;;;4.60;;
67185;SDS011;54116;53.518;49.398;2023-05-29T04:24:10;7.15;;;5.05;;
67185;SDS011;54116;53.518;49.398;2023-05-29T04:26:36;7.63;;;5.10;;
67185;SDS011;54116;53.518;49.398;2023-05-29T04:29:06;6.55;;;4.78;;
67185;SDS011;54116;53.518;49.398;2023-05-29T04:31:38;8.10;;;4.70;;
67185;SDS011;54116;53.518;49.398;2023-05-29T04:34:04;10.20;;;4.80;;
67185;SDS011;54116;53.518;49.398;2023-05-29T04:36:31;8.80;;;4.82;;
67185;SDS011;54116;53.518;49.398;2023-05-29T04:38:58;7.45;;;3.88;;
67185;SDS011;54116;53.518;49.398;2023-05-29T04:41:25;8.27;;;4.65;;
67185;SDS011;54116;53.518;49.398;2023-05-29T04:43:55;6.53;;;4.18;;
67185;SDS011;54116;53.518;49.398;2023-05-29T04:46:22;6.00;;;3.97;;
67185;SDS011;54116;53.518;49.398;2023-05-29T04:48:49;7.22;;;4.13;;
67185;SDS011;54116;53.518;49.398;2023-05-29T04:51:19;8.50;;;4.50;;
67185;SDS011;54116;53.518;49.398;2023-05-29T04:53:45;7.60;;;4.25;;
67185;SDS011;54116;53.518;49.398;2023-05-29T04:56:14;7.40;;;4.50;;
67185;SDS011;54116;53.518;49.398;2023-05-29T04:58:41;6.10;;;3.83;;
67185;SDS011;54116;53.518;49.398;2023-05-29T05:01:07;7.43;;;4.20;;
67185;SDS011;54116;53.518;49.398;2023-05-29T05:03:34;7.78;;;4.55;;
67185;SDS011;54116;53.518;49.398;2023-05-29T05:06:01;6.28;;;4.28;;
67185;SDS011;54116;53.518;49.398;2023-05-29T05:08:28;9.15;;;4.05;;
67185;SDS011;54116;53.518;49.398;2023-05-29T05:10:55;8.38;;;4.30;;
67185;SDS011;54116;53.518;49.398;2023-05-29T05:13:21;13.48;;;5.88;;
67185;SDS011;54116;53.518;49.398;2023-05-29T05:15:47;5.57;;;3.70;;
67185;SDS011;54116;53.518;49.398;2023-05-29T05:18:13;6.82;;;4.15;;
67185;SDS011;54116;53.518;49.398;2023-05-29T05:20:40;8.35;;;4.75;;
67185;SDS011;54116;53.518;49.398;2023-05-29T05:23:06;8.55;;;4.63;;
67185;SDS011;54116;53.518;49.398;2023-05-29T05:25:32;6.78;;;3.92;;
67185;SDS011;54116;53.518;49.398;2023-05-29T05:28:01;7.80;;;3.95;;
67185;SDS011;54116;53.518;49.398;2023-05-29T05:30:28;7.30;;;3.70;;
67185;SDS011;54116;53.518;49.398;2023-05-29T05:32:54;8.60;;;4.30;;
67185;SDS011;54116;53.518;49.398;2023-05-29T05:35:21;6.90;;;3.60;;
67185;SDS011;54116;53.518;49.398;2023-05-29T05:37:47;7.63;;;3.60;;
67185;SDS011;54116;53.518;49.398;2023-05-29T05:40:13;6.68;;;3.28;;
67185;SDS011;54116;53.518;49.398;2023-05-29T05:42:40;8.55;;;3.78;;
67185;SDS011;54116;53.518;49.398;2023-05-29T05:45:06;7.03;;;3.63;;
67185;SDS011;54116;53.518;49.398;2023-05-29T05:47:33;8.27;;;3.88;;
67185;SDS011;54116;53.518;49.398;2023-05-29T05:49:59;9.15;;;3.40;;
67185;SDS011;54116;53.518;49.398;2023-05-29T05:52:25;6.55;;;3.80;;
67185;SDS011;54116;53.518;49.398;2023-05-29T05:54:56;6.78;;;4.05;;
67185;SDS011;54116;53.518;49.398;2023-05-29T05:57:22;6.22;;;3.85;;
67185;SDS011;54116;53.518;49.398;2023-05-29T05:59:48;5.43;;;3.30;;
67185;SDS011;54116;53.518;49.398;2023-05-29T06:02:14;7.47;;;4.15;;
67185;SDS011;54116;53.518;49.398;2023-05-29T06:04:41;7.28;;;3.70;;
67185;SDS011;54116;53.518;49.398;2023-05-29T06:07:07;5.90;;;3.30;;
67185;SDS011;54116;53.518;49.398;2023-05-29T06:09:34;6.22;;;3.10;;
67185;SDS011;54116;53.518;49.398;2023-05-29T06:12:00;7.40;;;3.35;;
67185;SDS011;54116;53.518;49.398;2023-05-29T06:14:26;4.63;;;2.75;;
67185;SDS011;54116;53.518;49.398;2023-05-29T06:16:52;7.28;;;3.33;;
67185;SDS011;54116;53.518;49.398;2023-05-29T06:19:19;7.60;;;2.63;;
67185;SDS011;54116;53.518;49.398;2023-05-29T06:21:45;4.10;;;2.10;;
67185;SDS011;54116;53.518;49.398;2023-05-29T06:24:12;5.47;;;2.33;;
67185;SDS011;54116;53.518;49.398;2023-05-29T06:26:38;6.53;;;2.53;;
67185;SDS011;54116;53.518;49.398;2023-05-29T06:29:04;10.40;;;2.10;;
67185;SDS011;54116;53.518;49.398;2023-05-29T06:31:31;3.72;;;1.63;;
67185;SDS011;54116;53.518;49.398;2023-05-29T06:33:58;5.07;;;2.95;;
67185;SDS011;54116;53.518;49.398;2023-05-29T06:36:25;5.78;;;2.72;;
67185;SDS011;54116;53.518;49.398;2023-05-29T06:38:51;6.05;;;2.47;;
67185;SDS011;54116;53.518;49.398;2023-05-29T06:41:18;4.38;;;2.25;;
67185;SDS011;54116;53.518;49.398;2023-05-29T06:43:45;5.72;;;2.60;;
67185;SDS011;54116;53.518;49.398;2023-05-29T06:46:11;7.50;;;2.60;;
67185;SDS011;54116;53.518;49.398;2023-05-29T06:48:38;5.20;;;2.70;;
67185;SDS011;54116;53.518;49.398;2023-05-29T06:51:04;6.05;;;2.63;;
67185;SDS011;54116;53.518;49.398;2023-05-29T06:53:40;6.15;;;2.60;;
67185;SDS011;54116;53.518;49.398;2023-05-29T06:56:07;4.32;;;2.55;;
67185;SDS011;54116;53.518;49.398;2023-05-29T06:58:33;4.38;;;2.42;;
67185;SDS011;54116;53.518;49.398;2023-05-29T07:01:00;4.57;;;2.50;;
67185;SDS011;54116;53.518;49.398;2023-05-29T07:03:26;4.90;;;2.10;;
67185;SDS011;54116;53.518;49.398;2023-05-29T07:05:53;6.05;;;2.35;;
67185;SDS011;54116;53.518;49.398;2023-05-29T07:08:39;5.40;;;2.65;;
67185;SDS011;54116;53.518;49.398;2023-05-29T07:11:05;4.05;;;2.05;;
67185;SDS011;54116;53.518;49.398;2023-05-29T07:13:32;5.15;;;2.58;;
67185;SDS011;54116;53.518;49.398;2023-05-29T07:16:16;4.95;;;2.28;;
67185;SDS011;54116;53.518;49.398;2023-05-29T07:18:44;5.68;;;2.40;;
67185;SDS011;54116;53.518;49.398;2023-05-29T07:21:10;6.40;;;2.03;;
67185;SDS011;54116;53.518;49.398;2023-05-29T07:26:21;6.50;;;2.50;;
67185;SDS011;54116;53.518;49.398;2023-05-29T07:32:11;5.65;;;2.40;;
67185;SDS011;54116;53.518;49.398;2023-05-29T07:34:56;4.30;;;2.20;;
67185;SDS011;54116;53.518;49.398;2023-05-29T07:40:25;4.38;;;2.35;;
67185;SDS011;54116;53.518;49.398;2023-05-29T07:43:10;5.40;;;2.83;;
67185;SDS011;54116;53.518;49.398;2023-05-29T07:45:36;4.90;;;2.42;;
67185;SDS011;54116;53.518;49.398;2023-05-29T07:48:20;5.55;;;2.88;;
67185;SDS011;54116;53.518;49.398;2023-05-29T07:50:46;8.05;;;2.85;;
67185;SDS011;54116;53.518;49.398;2023-05-29T07:53:13;5.63;;;2.45;;
67185;SDS011;54116;53.518;49.398;2023-05-29T07:55:39;6.97;;;2.90;;
67185;SDS011;54116;53.518;49.398;2023-05-29T07:58:05;5.15;;;2.80;;
67185;SDS011;54116;53.518;49.398;2023-05-29T08:00:32;7.22;;;2.72;;
67185;SDS011;54116;53.518;49.398;2023-05-29T08:02:59;7.50;;;2.88;;
67185;SDS011;54116;53.518;49.398;2023-05-29T08:05:25;6.93;;;2.97;;
67185;SDS011;54116;53.518;49.398;2023-05-29T08:07:51;5.18;;;2.60;;
67185;SDS011;54116;53.518;49.398;2023-05-29T08:10:17;5.82;;;2.83;;
67185;SDS011;54116;53.518;49.398;2023-05-29T08:12:43;6.13;;;2.10;;
67185;SDS011;54116;53.518;49.398;2023-05-29T08:15:10;6.35;;;3.03;;
67185;SDS011;54116;53.518;49.398;2023-05-29T08:17:37;5.38;;;2.80;;
67185;SDS011;54116;53.518;49.398;2023-05-29T08:20:03;7.80;;;2.70;;
67185;SDS011;54116;53.518;49.398;2023-05-29T08:22:32;6.57;;;2.75;;
67185;SDS011;54116;53.518;49.398;2023-05-29T08:25:16;5.93;;;2.58;;
67185;SDS011;54116;53.518;49.398;2023-05-29T08:27:44;9.25;;;2.80;;
67185;SDS011;54116;53.518;49.398;2023-05-29T08:30:10;5.57;;;2.80;;
67185;SDS011;54116;53.518;49.398;2023-05-29T08:32:55;6.03;;;2.88;;
67185;SDS011;54116;53.518;49.398;2023-05-29T08:35:21;5.68;;;2.60;;
67185;SDS011;54116;53.518;49.398;2023-05-29T08:37:48;6.40;;;2.80;;
67185;SDS011;54116;53.518;49.398;2023-05-29T08:40:14;5.85;;;2.45;;
67185;SDS011;54116;53.518;49.398;2023-05-29T08:43:02;6.68;;;2.63;;
67185;SDS011;54116;53.518;49.398;2023-05-29T08:45:30;7.72;;;2.35;;
67185;SDS011;54116;53.518;49.398;2023-05-29T08:48:00;6.32;;;2.42;;
67185;SDS011;54116;53.518;49.398;2023-05-29T08:50:27;6.65;;;2.38;;
67185;SDS011;54116;53.518;49.398;2023-05-29T08:52:53;5.85;;;2.58;;
67185;SDS011;54116;53.518;49.398;2023-05-29T08:55:19;3.78;;;1.83;;
67185;SDS011;54116;53.518;49.398;2023-05-29T08:57:50;7.85;;;2.60;;
67185;SDS011;54116;53.518;49.398;2023-05-29T09:00:17;5.13;;;2.30;;
67185;SDS011;54116;53.518;49.398;2023-05-29T09:02:45;4.88;;;2.28;;
67185;SDS011;54116;53.518;49.398;2023-05-29T09:05:11;5.32;;;2.58;;
67185;SDS011;54116;53.518;49.398;2023-05-29T09:07:38;8.43;;;2.83;;
67185;SDS011;54116;53.518;49.398;2023-05-29T09:12:56;6.05;;;2.60;;
67185;SDS011;54116;53.518;49.398;2023-05-29T09:15:41;4.80;;;2.60;;
67185;SDS011;54116;53.518;49.398;2023-05-29T09:18:11;5.00;;;2.80;;
67185;SDS011;54116;53.518;49.398;2023-05-29T09:23:21;5.03;;;2.53;;
67185;SDS011;54116;53.518;49.398;2023-05-29T09:28:50;5.32;;;2.90;;
67185;SDS011;54116;53.518;49.398;2023-05-29T09:31:16;5.55;;;2.28;;
67185;SDS011;54116;53.518;49.398;2023-05-29T09:36:48;9.77;;;3.30;;
67185;SDS011;54116;53.518;49.398;2023-05-29T09:39:14;4.47;;;2.70;;
67185;SDS011;54116;53.518;49.398;2023-05-29T09:41:44;7.05;;;3.00;;
67185;SDS011;54116;53.518;49.398;2023-05-29T09:44:14;6.90;;;2.88;;
67185;SDS011;54116;53.518;49.398;2023-05-29T09:46:46;6.47;;;3.20;;
67185;SDS011;54116;53.518;49.398;2023-05-29T09:49:15;6.53;;;2.90;;
67185;SDS011;54116;53.518;49.398;2023-05-29T09:51:42;6.00;;;2.60;;
67185;SDS011;54116;53.518;49.398;2023-05-29T09:54:30;5.32;;;2.50;;
67185;SDS011;54116;53.518;49.398;2023-05-29T09:56:58;5.85;;;3.30;;
67185;SDS011;54116;53.518;49.398;2023-05-29T09:59:26;5.57;;;2.72;;
67185;SDS011;54116;53.518;49.398;2023-05-29T10:02:03;7.13;;;2.92;;
67185;SDS011;54116;53.518;49.398;2023-05-29T10:04:30;6.28;;;3.33;;
67185;SDS011;54116;53.518;49.398;2023-05-29T10:07:26;8.43;;;3.22;;
67185;SDS011;54116;53.518;49.398;2023-05-29T10:12:42;6.50;;;3.28;;
67185;SDS011;54116;53.518;49.398;2023-05-29T10:15:13;8.02;;;3.38;;
67185;SDS011;54116;53.518;49.398;2023-05-29T10:17:45;7.05;;;3.42;;
67185;SDS011;54116;53.518;49.398;2023-05-29T10:20:39;6.25;;;3.50;;
67185;SDS011;54116;53.518;49.398;2023-05-29T10:23:10;6.25;;;3.00;;
67185;SDS011;54116;53.518;49.398;2023-05-29T10:25:37;7.63;;;2.92;;
67185;SDS011;54116;53.518;49.398;2023-05-29T10:28:06;6.88;;;2.72;;
67185;SDS011;54116;53.518;49.398;2023-05-29T10:30:37;6.82;;;3.28;;
67185;SDS011;54116;53.518;49.398;2023-05-29T10:33:20;5.75;;;3.15;;
67185;SDS011;54116;53.518;49.398;2023-05-29T10:35:57;5.93;;;3.30;;
67185;SDS011;54116;53.518;49.398;2023-05-29T10:38:25;7.53;;;3.17;;
67185;SDS011;54116;53.518;49.398;2023-05-29T10:40:52;5.20;;;2.80;;
67185;SDS011;54116;53.518;49.398;2023-05-29T10:43:31;7.68;;;3.15;;
67185;SDS011;54116;53.518;49.398;2023-05-29T10:45:58;7.60;;;2.92;;
67185;SDS011;54116;53.518;49.398;2023-05-29T10:50:54;9.98;;;3.95;;
67185;SDS011;54116;53.518;49.398;2023-05-29T10:53:25;7.78;;;3.25;;
67185;SDS011;54116;53.518;49.398;2023-05-29T10:55:56;6.18;;;3.45;;
67185;SDS011;54116;53.518;49.398;2023-05-29T10:58:41;6.95;;;2.72;;
67185;SDS011;54116;53.518;49.398;2023-05-29T11:01:07;5.97;;;3.15;;
67185;SDS011;54116;53.518;49.398;2023-05-29T11:03:34;10.20;;;3.70;;
67185;SDS011;54116;53.518;49.398;2023-05-29T11:06:04;6.72;;;3.45;;
67185;SDS011;54116;53.518;49.398;2023-05-29T11:08:43;6.78;;;3.33;;
67185;SDS011;54116;53.518;49.398;2023-05-29T11:11:33;6.95;;;3.22;;
67185;SDS011;54116;53.518;49.398;2023-05-29T11:14:05;7.28;;;3.33;;
67185;SDS011;54116;53.518;49.398;2023-05-29T11:18:59;7.72;;;3.78;;
67185;SDS011;54116;53.518;49.398;2023-05-29T11:27:05;12.35;;;3.72;;
67185;SDS011;54116;53.518;49.398;2023-05-29T11:29:33;8.73;;;2.97;;
67185;SDS011;54116;53.518;49.398;2023-05-29T11:32:03;6.07;;;3.08;;
67185;SDS011;54116;53.518;49.398;2023-05-29T11:34:53;7.03;;;3.58;;
67185;SDS011;54116;53.518;49.398;2023-05-29T11:37:21;16.38;;;3.63;;
67185;SDS011;54116;53.518;49.398;2023-05-29T11:39:49;6.55;;;3.35;;
67185;SDS011;54116;53.518;49.398;2023-05-29T11:42:16;7.40;;;3.28;;
67185;SDS011;54116;53.518;49.398;2023-05-29T11:44:42;8.25;;;3.15;;
67185;SDS011;54116;53.518;49.398;2023-05-29T11:47:08;6.55;;;3.55;;
67185;SDS011;54116;53.518;49.398;2023-05-29T11:49:35;6.53;;;2.90;;
67185;SDS011;54116;53.518;49.398;2023-05-29T11:52:09;8.52;;;3.30;;
67185;SDS011;54116;53.518;49.398;2023-05-29T11:57:30;7.47;;;3.08;;
67185;SDS011;54116;53.518;49.398;2023-05-29T12:00:15;10.25;;;2.88;;
67185;SDS011;54116;53.518;49.398;2023-05-29T12:02:42;6.18;;;3.03;;
67185;SDS011;54116;53.518;49.398;2023-05-29T12:05:09;9.60;;;3.70;;
67185;SDS011;54116;53.518;49.398;2023-05-29T12:07:54;5.93;;;3.30;;
67185;SDS011;54116;53.518;49.398;2023-05-29T12:10:27;5.40;;;2.83;;
67185;SDS011;54116;53.518;49.398;2023-05-29T12:12:55;7.50;;;3.25;;
67185;SDS011;54116;53.518;49.398;2023-05-29T12:15:26;6.05;;;3.22;;
67185;SDS011;54116;53.518;49.398;2023-05-29T12:17:53;6.10;;;3.20;;
67185;SDS011;54116;53.518;49.398;2023-05-29T12:20:22;6.53;;;3.20;;
67185;SDS011;54116;53.518;49.398;2023-05-29T12:22:49;6.93;;;2.95;;
67185;SDS011;54116;53.518;49.398;2023-05-29T12:25:16;8.95;;;3.28;;
67185;SDS011;54116;53.518;49.398;2023-05-29T12:27:44;6.28;;;2.75;;
67185;SDS011;54116;53.518;49.398;2023-05-29T12:30:12;6.10;;;3.00;;
67185;SDS011;54116;53.518;49.398;2023-05-29T12:35:49;7.15;;;2.97;;
67185;SDS011;54116;53.518;49.398;2023-05-29T12:38:18;5.60;;;2.55;;
67185;SDS011;54116;53.518;49.398;2023-05-29T12:40:48;6.32;;;2.45;;
67185;SDS011;54116;53.518;49.398;2023-05-29T12:43:33;7.90;;;2.78;;
67185;SDS011;54116;53.518;49.398;2023-05-29T12:45:59;7.35;;;2.75;;
67185;SDS011;54116;53.518;49.398;2023-05-29T12:48:26;6.72;;;2.78;;
67185;SDS011;54116;53.518;49.398;2023-05-29T12:51:11;5.57;;;2.55;;
67185;SDS011;54116;53.518;49.398;2023-05-29T12:53:38;6.95;;;2.58;;
67185;SDS011;54116;53.518;49.398;2023-05-29T12:56:04;4.90;;;2.60;;
67185;SDS011;54116;53.518;49.398;2023-05-29T12:58:31;6.05;;;2.85;;
67185;SDS011;54116;53.518;49.398;2023-05-29T13:00:57;5.57;;;2.92;;
67185;SDS011;54116;53.518;49.398;2023-05-29T13:03:23;8.70;;;2.58;;
67185;SDS011;54116;53.518;49.398;2023-05-29T13:05:50;9.10;;;3.15;;
67185;SDS011;54116;53.518;49.398;2023-05-29T13:08:34;7.93;;;2.55;;
67185;SDS011;54116;53.518;49.398;2023-05-29T13:11:00;7.68;;;2.72;;
67185;SDS011;54116;53.518;49.398;2023-05-29T13:13:26;7.80;;;2.60;;
67185;SDS011;54116;53.518;49.398;2023-05-29T13:15:54;5.57;;;2.20;;
67185;SDS011;54116;53.518;49.398;2023-05-29T13:18:20;7.78;;;2.60;;
67185;SDS011;54116;53.518;49.398;2023-05-29T13:20:46;5.10;;;2.20;;
67185;SDS011;54116;53.518;49.398;2023-05-29T13:23:32;5.38;;;2.22;;
67185;SDS011;54116;53.518;49.398;2023-05-29T13:25:58;4.80;;;2.15;;
67185;SDS011;54116;53.518;49.398;2023-05-29T13:28:24;14.52;;;2.13;;
67185;SDS011;54116;53.518;49.398;2023-05-29T13:30:50;5.82;;;2.17;;
67185;SDS011;54116;53.518;49.398;2023-05-29T13:33:17;6.10;;;2.45;;
67185;SDS011;54116;53.518;49.398;2023-05-29T13:35:43;6.20;;;2.33;;
67185;SDS011;54116;53.518;49.398;2023-05-29T13:38:27;6.97;;;2.20;;
67185;SDS011;54116;53.518;49.398;2023-05-29T13:43:38;6.20;;;2.22;;
67185;SDS011;54116;53.518;49.398;2023-05-29T13:46:04;8.55;;;2.28;;
67185;SDS011;54116;53.518;49.398;2023-05-29T13:48:30;5.60;;;2.08;;
67185;SDS011;54116;53.518;49.398;2023-05-29T13:50:59;7.82;;;2.80;;
67185;SDS011;54116;53.518;49.398;2023-05-29T13:53:25;6.10;;;2.00;;
67185;SDS011;54116;53.518;49.398;2023-05-29T13:55:51;5.50;;;1.90;;
67185;SDS011;54116;53.518;49.398;2023-05-29T13:58:17;14.10;;;2.90;;
67185;SDS011;54116;53.518;49.398;2023-05-29T14:00:43;7.35;;;1.92;;
67185;SDS011;54116;53.518;49.398;2023-05-29T14:03:11;4.68;;;1.73;;
67185;SDS011;54116;53.518;49.398;2023-05-29T14:05:55;5.45;;;1.80;;
67185;SDS011;54116;53.518;49.398;2023-05-29T14:08:22;4.65;;;2.03;;
67185;SDS011;54116;53.518;49.398;2023-05-29T14:10:48;3.60;;;1.70;;
67185;SDS011;54116;53.518;49.398;2023-05-29T14:13:16;4.78;;;1.95;;
67185;SDS011;54116;53.518;49.398;2023-05-29T14:15:42;4.72;;;1.65;;
67185;SDS011;54116;53.518;49.398;2023-05-29T14:20:52;4.55;;;1.85;;
67185;SDS011;54116;53.518;49.398;2023-05-29T14:23:19;5.80;;;2.00;;
67185;SDS011;54116;53.518;49.398;2023-05-29T14:25:45;5.47;;;1.85;;
67185;SDS011;54116;53.518;49.398;2023-05-29T14:28:29;6.82;;;2.10;;
67185;SDS011;54116;53.518;49.398;2023-05-29T14:30:55;5.70;;;2.10;;
67185;SDS011;54116;53.518;49.398;2023-05-29T14:33:21;6.95;;;2.20;;
67185;SDS011;54116;53.518;49.398;2023-05-29T14:35:48;6.45;;;1.77;;
67185;SDS011;54116;53.518;49.398;2023-05-29T14:38:14;5.82;;;1.60;;
67185;SDS011;54116;53.518;49.398;2023-05-29T14:40:40;8.65;;;2.10;;
67185;SDS011;54116;53.518;49.398;2023-05-29T14:43:06;6.40;;;2.08;;
67185;SDS011;54116;53.518;49.398;2023-05-29T14:45:50;6.13;;;2.00;;
67185;SDS011;54116;53.518;49.398;2023-05-29T14:51:06;4.25;;;1.60;;
67185;SDS011;54116;53.518;49.398;2023-05-29T14:53:32;6.97;;;2.75;;
67185;SDS011;54116;53.518;49.398;2023-05-29T14:55:58;6.72;;;3.20;;
67185;SDS011;54116;53.518;49.398;2023-05-29T14:58:24;5.47;;;2.05;;
67185;SDS011;54116;53.518;49.398;2023-05-29T15:01:10;10.52;;;2.88;;
67185;SDS011;54116;53.518;49.398;2023-05-29T15:03:36;8.30;;;2.58;;
67185;SDS011;54116;53.518;49.398;2023-05-29T15:08:47;6.57;;;2.15;;
67185;SDS011;54116;53.518;49.398;2023-05-29T15:11:21;6.32;;;1.83;;
67185;SDS011;54116;53.518;49.398;2023-05-29T15:13:50;5.97;;;1.85;;
67185;SDS011;54116;53.518;49.398;2023-05-29T15:16:16;5.57;;;1.95;;
67185;SDS011;54116;53.518;49.398;2023-05-29T15:18:42;5.35;;;1.98;;
67185;SDS011;54116;53.518;49.398;2023-05-29T15:21:08;7.70;;;2.60;;
67185;SDS011;54116;53.518;49.398;2023-05-29T15:23:34;10.07;;;3.67;;
67185;SDS011;54116;53.518;49.398;2023-05-29T15:26:01;8.75;;;3.05;;
67185;SDS011;54116;53.518;49.398;2023-05-29T15:28:28;21.27;;;4.00;;
67185;SDS011;54116;53.518;49.398;2023-05-29T15:30:54;6.60;;;2.30;;
67185;SDS011;54116;53.518;49.398;2023-05-29T15:33:21;8.90;;;2.20;;
67185;SDS011;54116;53.518;49.398;2023-05-29T15:35:47;5.88;;;2.13;;
67185;SDS011;54116;53.518;49.398;2023-05-29T15:38:14;15.43;;;2.75;;